createdAt,value
2019-03-24T00:00:08.331Z,23.05
2019-03-24T00:02:36.927Z,19.60
2019-03-24T00:05:07.503Z,20.17
2019-03-24T00:07:35.965Z,14.70
2019-03-24T00:10:07.048Z,16.12
2019-03-24T00:12:35.507Z,22.73
2019-03-24T00:15:06.569Z,20.47
2019-03-24T00:17:42.646Z,17.13
2019-03-24T00:20:11.598Z,23.97
2019-03-24T00:22:40.500Z,18.77
2019-03-24T00:25:12.075Z,23.98
2019-03-24T00:27:46.435Z,17.87
2019-03-24T00:30:19.939Z,15.13
2019-03-24T00:32:48.411Z,22.22
2019-03-24T00:35:16.965Z,13.57
2019-03-24T00:37:45.559Z,23.10
2019-03-24T00:40:14.992Z,20.82
2019-03-24T00:42:43.948Z,19.27
2019-03-24T00:45:13.056Z,21.67
2019-03-24T00:47:41.899Z,22.83
2019-03-24T00:50:11.009Z,26.80
2019-03-24T00:52:39.472Z,24.40
2019-03-24T00:55:08.599Z,23.10
2019-03-24T00:57:37.687Z,20.23
2019-03-24T01:00:09.394Z,20.27
2019-03-24T01:02:57.208Z,18.90
2019-03-24T01:05:25.794Z,19.33
2019-03-24T01:07:54.717Z,23.60
2019-03-24T01:10:23.177Z,19.37
2019-03-24T01:12:51.646Z,21.43
2019-03-24T01:15:20.141Z,18.37
2019-03-24T01:17:48.722Z,22.67
2019-03-24T01:20:17.370Z,27.32
2019-03-24T01:22:45.842Z,19.03
2019-03-24T01:25:14.458Z,24.23
2019-03-24T01:27:42.979Z,21.17
2019-03-24T01:30:12.068Z,17.43
2019-03-24T01:32:40.612Z,21.90
2019-03-24T01:35:10.313Z,17.07
2019-03-24T01:37:38.770Z,18.95
2019-03-24T01:40:07.670Z,17.93
2019-03-24T01:42:36.506Z,14.10
2019-03-24T01:45:12.141Z,21.20
2019-03-24T01:47:40.618Z,18.57
2019-03-24T01:50:10.730Z,26.10
2019-03-24T01:52:39.273Z,16.43
2019-03-24T01:55:08.654Z,20.57
2019-03-24T01:57:37.480Z,22.70
2019-03-24T02:00:08.305Z,17.60
2019-03-24T02:02:36.767Z,31.30
2019-03-24T02:05:07.144Z,32.07
2019-03-24T02:07:35.696Z,22.30
2019-03-24T02:10:07.022Z,18.33
2019-03-24T02:12:35.513Z,18.07
2019-03-24T02:15:07.125Z,15.17
2019-03-24T02:17:35.675Z,23.43
2019-03-24T02:20:06.554Z,18.67
2019-03-24T02:22:35.042Z,21.53
2019-03-24T02:25:05.966Z,20.80
2019-03-24T02:27:34.665Z,22.83
2019-03-24T02:30:04.204Z,17.93
2019-03-24T02:32:32.835Z,17.37
2019-03-24T02:35:01.354Z,25.30
2019-03-24T02:37:29.927Z,16.60
2019-03-24T02:39:58.545Z,31.23
2019-03-24T02:42:27.047Z,25.77
2019-03-24T02:44:55.917Z,19.40
2019-03-24T02:47:24.386Z,12.60
2019-03-24T02:49:53.324Z,22.10
2019-03-24T02:52:21.774Z,19.48
2019-03-24T02:54:50.241Z,16.73
2019-03-24T02:57:18.799Z,20.45
2019-03-24T02:59:47.440Z,23.60
2019-03-24T03:02:16.001Z,22.37
2019-03-24T03:04:44.804Z,32.70
2019-03-24T03:07:13.405Z,17.17
2019-03-24T03:09:41.946Z,26.47
2019-03-24T03:12:10.615Z,22.85
2019-03-24T03:14:39.545Z,20.43
2019-03-24T03:17:09.622Z,20.77
2019-03-24T03:19:38.561Z,26.87
2019-03-24T03:22:07.020Z,20.37
2019-03-24T03:24:35.578Z,22.97
2019-03-24T03:27:05.475Z,24.40
2019-03-24T03:29:34.233Z,25.15
2019-03-24T03:32:02.740Z,28.17
2019-03-24T03:34:31.347Z,31.50
2019-03-24T03:36:59.816Z,20.20
2019-03-24T03:39:28.266Z,20.50
2019-03-24T03:41:57.044Z,19.73
2019-03-24T03:44:25.752Z,31.13
2019-03-24T03:46:54.352Z,24.63
2019-03-24T03:49:22.826Z,19.17
2019-03-24T03:51:51.393Z,32.33
2019-03-24T03:54:19.868Z,23.43
2019-03-24T03:56:48.817Z,23.47
2019-03-24T03:59:17.354Z,26.27
2019-03-24T04:01:45.844Z,28.20
2019-03-24T04:04:14.605Z,22.93
2019-03-24T04:06:43.169Z,24.60
2019-03-24T04:09:11.727Z,16.73
2019-03-24T04:11:40.266Z,21.43
2019-03-24T04:14:09.261Z,15.77
2019-03-24T04:16:37.890Z,30.97
2019-03-24T04:19:06.415Z,32.87
2019-03-24T04:21:34.869Z,15.37
2019-03-24T04:24:04.945Z,18.50
2019-03-24T04:26:33.501Z,20.70
2019-03-24T04:29:01.973Z,20.70
2019-03-24T04:31:30.701Z,20.60
2019-03-24T04:33:59.255Z,24.03
2019-03-24T04:36:27.792Z,21.17
2019-03-24T04:38:56.260Z,28.77
2019-03-24T04:41:25.125Z,16.07
2019-03-24T04:43:53.653Z,16.20
2019-03-24T04:46:22.207Z,26.90
2019-03-24T04:48:50.669Z,41.07
2019-03-24T04:51:19.259Z,15.80
2019-03-24T04:53:47.728Z,23.60
2019-03-24T04:56:16.310Z,15.83
2019-03-24T04:58:45.610Z,18.67
2019-03-24T05:01:14.084Z,26.87
2019-03-24T05:03:42.627Z,28.93
2019-03-24T05:06:12.286Z,36.10
2019-03-24T05:08:41.580Z,19.70
2019-03-24T05:11:10.219Z,20.62
2019-03-24T05:13:38.706Z,24.53
2019-03-24T05:16:07.185Z,22.40
2019-03-24T05:18:35.682Z,20.30
2019-03-24T05:21:05.073Z,20.52
2019-03-24T05:23:33.603Z,18.30
2019-03-24T05:26:02.225Z,15.90
2019-03-24T05:28:30.692Z,25.83
2019-03-24T05:30:59.170Z,20.43
2019-03-24T05:33:28.217Z,24.93
2019-03-24T05:35:56.763Z,25.33
2019-03-24T05:38:25.222Z,18.83
2019-03-24T05:40:54.506Z,27.53
2019-03-24T05:43:22.996Z,21.42
2019-03-24T05:45:51.898Z,10.67
2019-03-24T05:48:20.349Z,23.47
2019-03-24T05:50:48.826Z,23.17
2019-03-24T05:53:17.364Z,21.55
2019-03-24T05:55:45.920Z,18.57
2019-03-24T05:58:14.405Z,16.00
2019-03-24T06:00:43.193Z,28.90
2019-03-24T06:03:11.657Z,21.00
2019-03-24T06:05:40.137Z,27.40
2019-03-24T06:08:08.603Z,32.97
2019-03-24T06:10:37.316Z,37.30
2019-03-24T06:13:05.841Z,26.17
2019-03-24T06:15:34.674Z,21.87
2019-03-24T06:18:03.159Z,19.70
2019-03-24T06:20:31.701Z,27.50
2019-03-24T06:23:00.254Z,18.23
2019-03-24T06:25:28.728Z,18.43
2019-03-24T06:27:57.272Z,27.33
2019-03-24T06:30:27.655Z,19.57
2019-03-24T06:32:56.192Z,18.33
2019-03-24T06:35:26.321Z,24.00
2019-03-24T06:37:54.908Z,27.40
2019-03-24T06:40:23.366Z,23.07
2019-03-24T06:42:52.073Z,21.20
2019-03-24T06:45:28.342Z,22.05
2019-03-24T06:47:57.891Z,19.23
2019-03-24T06:50:21.751Z,16.60
2019-03-24T06:52:51.016Z,23.37
2019-03-24T06:55:19.948Z,28.17
2019-03-24T06:57:48.433Z,23.57
2019-03-24T07:00:17.162Z,19.37
2019-03-24T07:02:45.654Z,23.80
2019-03-24T07:05:14.507Z,27.02
2019-03-24T07:07:43.006Z,31.80
2019-03-24T07:10:13.453Z,26.30
2019-03-24T07:12:41.925Z,23.60
2019-03-24T07:15:11.328Z,21.85
2019-03-24T07:17:39.896Z,25.67
2019-03-24T07:20:09.004Z,30.30
2019-03-24T07:22:37.598Z,29.53
2019-03-24T07:25:07.110Z,23.73
2019-03-24T07:27:35.986Z,19.10
2019-03-24T07:30:08.135Z,25.17
2019-03-24T07:32:36.659Z,17.37
2019-03-24T07:35:07.014Z,28.47
2019-03-24T07:37:35.957Z,35.17
2019-03-24T07:40:08.665Z,28.63
2019-03-24T07:42:37.291Z,29.60
2019-03-24T07:45:07.562Z,27.90
2019-03-24T07:47:36.108Z,21.03
2019-03-24T07:50:09.548Z,27.20
2019-03-24T07:52:39.560Z,17.37
2019-03-24T07:55:08.477Z,20.83
2019-03-24T07:57:37.026Z,26.47
2019-03-24T08:00:07.892Z,24.17
2019-03-24T08:02:36.361Z,22.87
2019-03-24T08:05:05.973Z,24.63
2019-03-24T08:07:34.581Z,29.90
2019-03-24T08:10:04.306Z,30.07
2019-03-24T08:12:33.062Z,13.63
2019-03-24T08:15:01.617Z,26.33
2019-03-24T08:17:30.402Z,26.00
2019-03-24T08:19:59.381Z,24.00
2019-03-24T08:22:28.105Z,26.00
2019-03-24T08:24:56.725Z,24.60
2019-03-24T08:27:25.210Z,27.10
2019-03-24T08:29:54.061Z,21.87
2019-03-24T08:32:22.560Z,30.77
2019-03-24T08:34:51.144Z,22.20
2019-03-24T08:37:21.374Z,24.65
2019-03-24T08:39:49.945Z,18.87
2019-03-24T08:42:18.424Z,22.17
2019-03-24T08:44:46.972Z,22.47
2019-03-24T08:47:15.450Z,20.80
2019-03-24T08:49:44.163Z,18.03
2019-03-24T08:52:12.746Z,20.90
2019-03-24T08:54:41.280Z,18.03
2019-03-24T08:57:09.822Z,12.93
2019-03-24T08:59:38.310Z,23.47
2019-03-24T09:02:07.025Z,22.70
2019-03-24T09:04:35.521Z,18.77
2019-03-24T09:07:06.467Z,21.73
2019-03-24T09:09:35.263Z,22.80
2019-03-24T09:12:05.114Z,24.93
2019-03-24T09:14:33.970Z,27.53
2019-03-24T09:17:02.576Z,16.63
2019-03-24T09:19:31.169Z,20.67
2019-03-24T09:22:00.040Z,29.60
2019-03-24T09:24:28.509Z,21.10
2019-03-24T09:26:57.127Z,15.10
2019-03-24T09:29:25.694Z,18.97
2019-03-24T09:31:54.262Z,19.33
2019-03-24T09:34:22.818Z,20.85
2019-03-24T09:36:54.026Z,17.90
2019-03-24T09:39:22.934Z,15.67
2019-03-24T09:41:51.829Z,20.13
2019-03-24T09:44:20.282Z,10.90
2019-03-24T09:46:48.773Z,21.97
2019-03-24T09:49:17.587Z,19.27
2019-03-24T09:51:46.234Z,22.83
2019-03-24T09:54:15.108Z,15.53
2019-03-24T09:56:43.590Z,21.07
2019-03-24T09:59:12.188Z,20.20
2019-03-24T10:01:41.273Z,17.93
2019-03-24T10:04:09.796Z,14.10
2019-03-24T10:06:38.303Z,15.93
2019-03-24T10:09:07.559Z,16.70
2019-03-24T10:11:36.987Z,12.97
2019-03-24T10:14:05.682Z,14.10
2019-03-24T10:16:34.147Z,17.63
2019-03-24T10:19:13.276Z,14.70
2019-03-24T10:21:32.997Z,19.53
2019-03-24T10:24:01.521Z,13.73
2019-03-24T10:26:29.987Z,16.97
2019-03-24T10:28:58.467Z,20.33
2019-03-24T10:31:27.203Z,20.47
2019-03-24T10:33:55.672Z,17.20
2019-03-24T10:36:24.152Z,17.33
2019-03-24T10:38:52.911Z,15.10
2019-03-24T10:41:21.460Z,14.20
2019-03-24T10:43:51.533Z,16.33
2019-03-24T10:46:20.170Z,17.65
2019-03-24T10:48:48.819Z,9.93
2019-03-24T10:51:17.283Z,21.33
2019-03-24T10:53:45.782Z,15.80
2019-03-24T10:56:14.251Z,14.37
2019-03-24T10:58:42.719Z,14.53
2019-03-24T11:01:11.202Z,19.43
2019-03-24T11:03:40.703Z,20.00
2019-03-24T11:06:09.175Z,16.70
2019-03-24T11:08:37.872Z,19.23
2019-03-24T11:11:06.455Z,17.80
2019-03-24T11:13:34.943Z,18.07
2019-03-24T11:16:03.418Z,11.43
2019-03-24T11:18:31.897Z,14.07
2019-03-24T11:21:00.465Z,11.57
2019-03-24T11:23:30.571Z,20.90
2019-03-24T11:43:00.281Z,23.90
2019-03-24T11:45:28.830Z,13.27
2019-03-24T11:47:57.296Z,11.13
2019-03-24T11:50:28.555Z,13.80
2019-03-24T11:52:57.126Z,13.53
2019-03-24T11:55:25.811Z,13.73
2019-03-24T11:58:05.094Z,16.90
2019-03-24T12:00:36.805Z,13.83
2019-03-24T12:03:08.710Z,8.53
2019-03-24T12:05:37.777Z,16.77
2019-03-24T12:08:06.549Z,14.80
2019-03-24T12:10:35.287Z,11.63
2019-03-24T12:13:05.208Z,14.33
2019-03-24T12:15:33.831Z,14.10
2019-03-24T12:18:02.310Z,12.10
2019-03-24T12:20:30.820Z,12.53
2019-03-24T12:22:59.355Z,17.10
2019-03-24T12:25:27.814Z,17.43
2019-03-24T12:27:57.155Z,13.20
2019-03-24T12:30:25.702Z,13.43
2019-03-24T12:32:54.626Z,15.50
2019-03-24T12:35:23.297Z,12.50
2019-03-24T12:37:52.040Z,15.67
2019-03-24T12:40:20.578Z,15.83
2019-03-24T12:42:49.129Z,9.13
2019-03-24T12:45:17.770Z,9.85
2019-03-24T12:47:46.661Z,19.83
2019-03-24T12:50:15.686Z,15.93
2019-03-24T12:52:44.441Z,11.73
2019-03-24T12:55:13.679Z,19.13
2019-03-24T12:57:44.176Z,14.83
2019-03-24T13:00:13.561Z,9.40
2019-03-24T13:02:42.270Z,13.03
2019-03-24T13:05:13.374Z,8.63
2019-03-24T13:07:42.289Z,13.83
2019-03-24T13:10:10.856Z,12.95
2019-03-24T13:12:39.388Z,13.93
2019-03-24T13:15:12.986Z,11.13
2019-03-24T13:17:41.905Z,9.70
2019-03-24T13:20:20.235Z,10.10
2019-03-24T13:22:41.212Z,12.23
2019-03-24T13:25:10.418Z,8.25
2019-03-24T13:27:38.978Z,14.23
2019-03-24T13:30:08.207Z,10.80
2019-03-24T13:32:36.769Z,15.00
2019-03-24T13:35:06.600Z,11.40
2019-03-24T13:37:35.781Z,12.90
2019-03-24T13:40:05.727Z,11.28
2019-03-24T13:42:34.402Z,11.90
2019-03-24T13:45:02.961Z,10.10
2019-03-24T13:47:31.529Z,13.70
2019-03-24T13:50:00.187Z,12.60
2019-03-24T13:52:28.878Z,13.77
2019-03-24T13:54:57.469Z,16.10
2019-03-24T13:57:26.021Z,13.00
2019-03-24T13:59:54.494Z,22.53
2019-03-24T14:02:23.058Z,16.75
2019-03-24T14:04:52.049Z,11.60
2019-03-24T14:07:20.518Z,13.25
2019-03-24T14:09:49.438Z,16.27
2019-03-24T14:12:18.049Z,10.10
2019-03-24T14:14:46.616Z,12.27
2019-03-24T14:17:15.484Z,10.97
2019-03-24T14:19:43.970Z,13.40
2019-03-24T14:22:12.452Z,13.23
2019-03-24T14:24:40.989Z,12.83
2019-03-24T14:27:09.462Z,9.03
2019-03-24T14:29:38.322Z,8.70
2019-03-24T14:32:07.265Z,12.87
2019-03-24T14:34:35.766Z,11.63
2019-03-24T14:37:04.727Z,11.60
2019-03-24T14:39:33.517Z,11.10
2019-03-24T14:42:01.995Z,9.27
2019-03-24T14:44:30.462Z,8.50
2019-03-24T14:46:59.006Z,13.67
2019-03-24T14:49:27.662Z,10.80
2019-03-24T14:51:56.143Z,12.50
2019-03-24T14:54:24.626Z,11.20
2019-03-24T14:56:53.250Z,17.07
2019-03-24T14:59:21.780Z,12.27
2019-03-24T15:01:50.245Z,8.30
2019-03-24T15:04:18.714Z,15.05
2019-03-24T15:06:47.178Z,10.20
2019-03-24T15:09:15.953Z,11.17
2019-03-24T15:11:44.488Z,9.40
2019-03-24T15:14:12.962Z,9.20
2019-03-24T15:16:41.446Z,5.00
2019-03-24T15:19:09.911Z,9.97
2019-03-24T15:21:38.591Z,9.03
2019-03-24T15:24:07.146Z,11.37
2019-03-24T15:26:35.708Z,10.27
2019-03-24T15:29:05.455Z,4.53
2019-03-24T15:31:34.339Z,9.93
2019-03-24T15:34:02.802Z,19.10
2019-03-24T15:36:33.003Z,13.93
2019-03-24T15:39:01.497Z,7.60
2019-03-24T15:41:30.051Z,10.83
2019-03-24T15:43:58.579Z,7.77
2019-03-24T15:46:27.457Z,8.90
2019-03-24T15:48:55.926Z,8.17
2019-03-24T15:51:24.758Z,10.60
2019-03-24T15:53:53.615Z,6.40
2019-03-24T15:56:28.008Z,16.37
2019-03-24T15:59:01.998Z,8.40
2019-03-24T16:01:30.929Z,6.73
2019-03-24T16:03:59.665Z,8.27
2019-03-24T16:06:28.155Z,6.97
2019-03-24T16:08:56.808Z,10.93
2019-03-24T16:11:25.345Z,10.30
2019-03-24T16:13:53.904Z,10.80
2019-03-24T16:16:23.176Z,9.83
2019-03-24T16:18:52.005Z,11.20
2019-03-24T16:21:27.667Z,8.90
2019-03-24T16:23:50.699Z,10.20
2019-03-24T16:26:19.234Z,13.15
2019-03-24T16:28:47.746Z,10.07
2019-03-24T16:31:16.292Z,10.32
2019-03-24T16:33:44.828Z,9.37
2019-03-24T16:36:13.793Z,11.53
2019-03-24T16:38:48.845Z,11.77
2019-03-24T16:41:13.293Z,14.03
2019-03-24T16:43:41.765Z,10.87
2019-03-24T16:46:10.533Z,13.83
2019-03-24T16:48:39.007Z,9.20
2019-03-24T16:51:07.462Z,9.47
2019-03-24T16:53:35.953Z,12.17
2019-03-24T16:56:04.678Z,10.05
2019-03-24T16:58:33.214Z,10.50
2019-03-24T17:01:02.208Z,10.83
2019-03-24T17:03:30.674Z,12.73
2019-03-24T17:05:59.146Z,6.17
2019-03-24T17:08:27.628Z,7.03
2019-03-24T17:10:59.731Z,10.93
2019-03-24T17:13:36.876Z,9.17
2019-03-24T17:16:02.645Z,22.17
2019-03-24T17:18:31.194Z,11.27
2019-03-24T17:20:59.665Z,16.80
2019-03-24T17:23:28.174Z,8.60
2019-03-24T17:25:56.714Z,11.07
2019-03-24T17:28:26.926Z,14.87
2019-03-24T17:30:55.553Z,6.47
2019-03-24T17:33:24.011Z,7.47
2019-03-24T17:35:53.077Z,8.40
2019-03-24T17:38:21.986Z,9.28
2019-03-24T17:40:50.465Z,5.60
2019-03-24T17:43:19.406Z,11.40
2019-03-24T17:45:47.892Z,12.93
2019-03-24T17:48:16.535Z,9.80
2019-03-24T17:50:45.267Z,12.50
2019-03-24T17:53:14.122Z,17.83
2019-03-24T17:55:43.166Z,14.03
2019-03-24T17:58:11.632Z,15.30
2019-03-24T18:00:48.807Z,20.40
2019-03-24T18:03:17.430Z,15.20
2019-03-24T18:05:46.050Z,13.37
2019-03-24T18:08:14.717Z,16.30
2019-03-24T18:10:43.321Z,10.50
2019-03-24T18:13:11.823Z,13.50
2019-03-24T18:15:40.529Z,11.27
2019-03-24T18:18:09.089Z,13.80
2019-03-24T18:20:37.703Z,10.43
2019-03-24T18:23:06.388Z,14.40
2019-03-24T18:25:34.865Z,13.57
2019-03-24T18:28:03.407Z,9.83
2019-03-24T18:30:32.149Z,12.70
2019-03-24T18:33:00.641Z,12.03
2019-03-24T18:35:29.109Z,8.77
2019-03-24T18:37:57.667Z,15.67
2019-03-24T18:40:26.198Z,10.60
2019-03-24T18:42:54.789Z,12.57
2019-03-24T18:45:24.801Z,9.07
2019-03-24T18:47:53.310Z,13.30
2019-03-24T18:50:21.856Z,12.20
2019-03-24T18:52:50.361Z,8.60
2019-03-24T18:55:18.928Z,12.47
2019-03-24T18:57:47.938Z,11.37
2019-03-24T19:00:16.980Z,11.57
2019-03-24T19:02:45.514Z,8.30
2019-03-24T19:05:14.317Z,9.73
2019-03-24T19:07:42.812Z,12.33
2019-03-24T19:10:12.613Z,12.78
2019-03-24T19:12:41.173Z,16.20
2019-03-24T19:15:12.444Z,12.63
2019-03-24T19:17:41.159Z,11.60
2019-03-24T19:20:10.755Z,10.27
2019-03-24T19:22:42.935Z,14.13
2019-03-24T19:25:12.039Z,11.50
2019-03-24T19:27:40.628Z,7.73
2019-03-24T19:30:17.428Z,13.05
2019-03-24T19:32:46.452Z,11.63
2019-03-24T19:35:16.452Z,6.92
2019-03-24T19:37:46.628Z,10.43
2019-03-24T19:40:29.760Z,12.87
2019-03-24T19:42:58.402Z,16.57
2019-03-24T19:45:30.401Z,8.10
2019-03-24T19:47:59.446Z,12.50
2019-03-24T19:50:27.982Z,8.43
2019-03-24T19:52:56.538Z,14.57
2019-03-24T19:55:25.121Z,9.03
2019-03-24T19:57:53.745Z,16.60
2019-03-24T20:00:22.286Z,10.67
2019-03-24T20:02:50.757Z,13.07
2019-03-24T20:05:19.488Z,14.03
2019-03-24T20:07:48.499Z,9.97
2019-03-24T20:10:17.232Z,16.93
2019-03-24T20:12:46.063Z,17.17
2019-03-24T20:15:15.306Z,12.07
2019-03-24T20:17:48.719Z,9.08
2019-03-24T20:20:18.058Z,14.73
2019-03-24T20:22:56.476Z,18.77
2019-03-24T20:25:20.626Z,16.33
2019-03-24T20:27:49.316Z,13.00
2019-03-24T20:30:18.824Z,20.27
2019-03-24T20:32:53.837Z,16.77
2019-03-24T20:35:25.975Z,13.63
2019-03-24T20:38:00.302Z,16.83
2019-03-24T20:40:34.740Z,12.73
2019-03-24T20:43:06.496Z,24.93
2019-03-24T20:45:39.474Z,14.10
2019-03-24T20:48:08.778Z,16.20
2019-03-24T20:50:42.344Z,17.40
2019-03-24T20:53:29.912Z,15.07
2019-03-24T20:56:01.575Z,10.87
2019-03-24T20:58:32.685Z,10.93
2019-03-24T21:01:01.163Z,11.93
2019-03-24T21:03:29.713Z,14.97
2019-03-24T21:05:58.196Z,16.53
2019-03-24T21:08:26.716Z,11.80
2019-03-24T21:10:55.220Z,13.17
2019-03-24T21:13:23.758Z,12.93
2019-03-24T21:15:52.301Z,15.63
2019-03-24T21:18:20.777Z,18.33
2019-03-24T21:20:49.347Z,14.10
2019-03-24T21:26:07.662Z,20.60
2019-03-24T21:28:36.469Z,19.90
2019-03-24T21:31:05.842Z,17.52
2019-03-24T21:33:34.303Z,17.07
2019-03-24T21:36:02.901Z,24.03
2019-03-24T21:38:31.388Z,18.37
2019-03-24T21:40:59.930Z,15.70
2019-03-24T21:43:31.881Z,15.47
2019-03-24T21:46:10.923Z,13.13
2019-03-24T21:48:36.827Z,12.53
2019-03-24T21:51:05.812Z,15.35
2019-03-24T21:53:40.677Z,12.57
2019-03-24T21:56:05.196Z,12.20
2019-03-24T21:58:33.760Z,11.47
2019-03-24T22:01:02.303Z,10.83
2019-03-24T22:03:30.837Z,13.10
2019-03-24T22:05:59.381Z,10.13
2019-03-24T22:08:29.883Z,11.63
2019-03-24T22:10:58.443Z,12.33
2019-03-24T22:13:26.981Z,14.20
2019-03-24T22:15:55.533Z,14.37
2019-03-24T22:18:24.015Z,12.07
2019-03-24T22:20:52.781Z,15.70
2019-03-24T22:23:51.962Z,10.25
2019-03-24T22:26:15.856Z,11.97
2019-03-24T22:28:44.725Z,12.17
2019-03-24T22:31:13.276Z,13.18
2019-03-24T22:33:42.121Z,11.43
2019-03-24T22:36:11.191Z,15.23
2019-03-24T22:38:39.801Z,12.58
2019-03-24T22:41:17.219Z,19.67
2019-03-24T22:43:45.691Z,13.90
2019-03-24T22:46:14.159Z,11.93
2019-03-24T22:48:42.638Z,15.27
2019-03-24T22:51:11.098Z,14.30
2019-03-24T22:53:39.668Z,12.93
2019-03-24T22:56:08.148Z,14.80
2019-03-24T22:58:36.674Z,14.10
2019-03-24T23:01:05.522Z,14.87
2019-03-24T23:03:34.051Z,16.10
2019-03-24T23:06:02.599Z,15.47
2019-03-24T23:08:31.062Z,14.87
2019-03-24T23:10:59.598Z,16.93
2019-03-24T23:13:28.054Z,12.20
2019-03-24T23:15:56.533Z,14.23
2019-03-24T23:18:25.100Z,11.70
2019-03-24T23:20:53.586Z,13.50
2019-03-24T23:23:22.157Z,13.22
2019-03-24T23:25:50.911Z,9.93
2019-03-24T23:28:19.846Z,21.37
2019-03-24T23:30:48.316Z,16.13
2019-03-24T23:33:16.840Z,12.23
2019-03-24T23:35:45.470Z,12.10
2019-03-24T23:38:13.936Z,12.80
2019-03-24T23:40:42.416Z,17.23
2019-03-24T23:43:11.418Z,11.93
2019-03-24T23:45:40.354Z,8.40
2019-03-24T23:48:08.845Z,10.83
2019-03-24T23:50:37.408Z,10.93
2019-03-24T23:53:06.009Z,12.40
2019-03-24T23:55:34.555Z,14.83
2019-03-24T23:58:03.080Z,11.10
